sensor_id;sensor_type;location;lat;lon;timestamp;temperature;humidity
37242;DHT22;23135;51.078;12.108;2023-07-30T00:02:16;15.70;99.90
37242;DHT22;23135;51.078;12.108;2023-07-30T00:04:42;15.70;99.90
37242;DHT22;23135;51.078;12.108;2023-07-30T00:07:08;15.70;99.90
37242;DHT22;23135;51.078;12.108;2023-07-30T00:09:33;15.70;99.90
37242;DHT22;23135;51.078;12.108;2023-07-30T00:11:59;15.80;99.90
37242;DHT22;23135;51.078;12.108;2023-07-30T00:14:24;15.80;99.90
37242;DHT22;23135;51.078;12.108;2023-07-30T00:16:50;15.80;99.90
37242;DHT22;23135;51.078;12.108;2023-07-30T00:19:16;15.80;99.90
37242;DHT22;23135;51.078;12.108;2023-07-30T00:21:41;16.00;99.90
37242;DHT22;23135;51.078;12.108;2023-07-30T00:24:11;16.20;99.90
37242;DHT22;23135;51.078;12.108;2023-07-30T00:26:37;16.40;99.90
37242;DHT22;23135;51.078;12.108;2023-07-30T00:29:03;16.50;99.90
37242;DHT22;23135;51.078;12.108;2023-07-30T00:31:29;16.50;99.90
37242;DHT22;23135;51.078;12.108;2023-07-30T00:33:55;16.50;99.90
37242;DHT22;23135;51.078;12.108;2023-07-30T00:36:20;16.50;99.90
37242;DHT22;23135;51.078;12.108;2023-07-30T00:38:46;16.60;99.90
37242;DHT22;23135;51.078;12.108;2023-07-30T00:41:11;16.60;99.90
37242;DHT22;23135;51.078;12.108;2023-07-30T00:43:37;16.70;99.90
37242;DHT22;23135;51.078;12.108;2023-07-30T00:46:03;16.70;99.90
37242;DHT22;23135;51.078;12.108;2023-07-30T00:48:29;16.60;99.90
37242;DHT22;23135;51.078;12.108;2023-07-30T00:50:55;16.60;99.90
37242;DHT22;23135;51.078;12.108;2023-07-30T00:53:22;16.60;99.90
37242;DHT22;23135;51.078;12.108;2023-07-30T00:55:49;16.60;99.90
37242;DHT22;23135;51.078;12.108;2023-07-30T00:58:15;16.70;99.90
37242;DHT22;23135;51.078;12.108;2023-07-30T01:00:41;16.50;99.90
37242;DHT22;23135;51.078;12.108;2023-07-30T01:03:07;16.60;99.90
37242;DHT22;23135;51.078;12.108;2023-07-30T01:05:33;16.50;99.90
37242;DHT22;23135;51.078;12.108;2023-07-30T01:07:59;16.50;99.90
37242;DHT22;23135;51.078;12.108;2023-07-30T01:10:25;16.50;99.90
37242;DHT22;23135;51.078;12.108;2023-07-30T01:12:51;16.50;99.90
37242;DHT22;23135;51.078;12.108;2023-07-30T01:15:17;16.50;99.90
37242;DHT22;23135;51.078;12.108;2023-07-30T01:17:43;16.50;99.90
37242;DHT22;23135;51.078;12.108;2023-07-30T01:20:10;16.50;99.90
37242;DHT22;23135;51.078;12.108;2023-07-30T01:22:36;16.50;99.90
37242;DHT22;23135;51.078;12.108;2023-07-30T01:25:02;16.50;99.90
37242;DHT22;23135;51.078;12.108;2023-07-30T01:27:36;16.50;99.90
37242;DHT22;23135;51.078;12.108;2023-07-30T01:30:26;16.50;99.90
37242;DHT22;23135;51.078;12.108;2023-07-30T01:32:52;16.60;99.90
37242;DHT22;23135;51.078;12.108;2023-07-30T01:35:20;16.60;99.90
37242;DHT22;23135;51.078;12.108;2023-07-30T01:37:48;16.60;99.90
37242;DHT22;23135;51.078;12.108;2023-07-30T01:40:14;16.70;99.90
37242;DHT22;23135;51.078;12.108;2023-07-30T01:42:40;16.70;99.90
37242;DHT22;23135;51.078;12.108;2023-07-30T01:45:06;16.70;99.90
37242;DHT22;23135;51.078;12.108;2023-07-30T01:47:32;16.70;99.90
37242;DHT22;23135;51.078;12.108;2023-07-30T01:49:58;16.70;99.90
37242;DHT22;23135;51.078;12.108;2023-07-30T01:52:23;16.70;99.90
37242;DHT22;23135;51.078;12.108;2023-07-30T01:54:49;16.70;99.90
37242;DHT22;23135;51.078;12.108;2023-07-30T01:57:14;16.80;99.90
37242;DHT22;23135;51.078;12.108;2023-07-30T01:59:40;16.70;99.90
37242;DHT22;23135;51.078;12.108;2023-07-30T02:02:05;16.70;99.90
37242;DHT22;23135;51.078;12.108;2023-07-30T02:04:32;16.70;99.90
37242;DHT22;23135;51.078;12.108;2023-07-30T02:06:58;16.60;99.90
37242;DHT22;23135;51.078;12.108;2023-07-30T02:09:23;16.60;99.90
37242;DHT22;23135;51.078;12.108;2023-07-30T02:11:49;16.60;99.90
37242;DHT22;23135;51.078;12.108;2023-07-30T02:14:15;16.60;99.90
37242;DHT22;23135;51.078;12.108;2023-07-30T02:16:40;16.60;99.90
37242;DHT22;23135;51.078;12.108;2023-07-30T02:19:06;16.60;99.90
37242;DHT22;23135;51.078;12.108;2023-07-30T02:21:31;16.60;99.90
37242;DHT22;23135;51.078;12.108;2023-07-30T02:23:59;16.60;99.90
37242;DHT22;23135;51.078;12.108;2023-07-30T02:26:25;16.50;99.90
37242;DHT22;23135;51.078;12.108;2023-07-30T02:28:50;16.50;99.90
37242;DHT22;23135;51.078;12.108;2023-07-30T02:31:16;16.50;99.90
37242;DHT22;23135;51.078;12.108;2023-07-30T02:33:42;16.50;99.90
37242;DHT22;23135;51.078;12.108;2023-07-30T02:36:07;16.50;99.90
37242;DHT22;23135;51.078;12.108;2023-07-30T02:38:33;16.40;99.90
37242;DHT22;23135;51.078;12.108;2023-07-30T02:40:58;16.40;99.90
37242;DHT22;23135;51.078;12.108;2023-07-30T02:43:24;16.40;99.90
37242;DHT22;23135;51.078;12.108;2023-07-30T02:45:49;16.50;99.90
37242;DHT22;23135;51.078;12.108;2023-07-30T02:48:15;16.50;99.90
37242;DHT22;23135;51.078;12.108;2023-07-30T02:50:41;16.50;99.90
37242;DHT22;23135;51.078;12.108;2023-07-30T02:53:06;16.50;99.90
37242;DHT22;23135;51.078;12.108;2023-07-30T02:55:32;16.50;99.90
37242;DHT22;23135;51.078;12.108;2023-07-30T02:57:57;16.40;99.90
37242;DHT22;23135;51.078;12.108;2023-07-30T03:00:23;16.40;99.90
37242;DHT22;23135;51.078;12.108;2023-07-30T03:02:49;16.40;99.90
37242;DHT22;23135;51.078;12.108;2023-07-30T03:05:14;16.40;99.90
37242;DHT22;23135;51.078;12.108;2023-07-30T03:07:40;16.40;99.90
37242;DHT22;23135;51.078;12.108;2023-07-30T03:10:06;16.40;99.90
37242;DHT22;23135;51.078;12.108;2023-07-30T03:12:31;16.40;99.90
37242;DHT22;23135;51.078;12.108;2023-07-30T03:14:57;16.40;99.90
37242;DHT22;23135;51.078;12.108;2023-07-30T03:17:22;16.40;99.90
37242;DHT22;23135;51.078;12.108;2023-07-30T03:19:48;16.40;99.90
37242;DHT22;23135;51.078;12.108;2023-07-30T03:22:14;16.40;99.90
37242;DHT22;23135;51.078;12.108;2023-07-30T03:24:39;16.50;99.90
37242;DHT22;23135;51.078;12.108;2023-07-30T03:27:05;16.50;99.90
37242;DHT22;23135;51.078;12.108;2023-07-30T03:29:31;16.40;99.90
37242;DHT22;23135;51.078;12.108;2023-07-30T03:31:56;16.40;99.90
37242;DHT22;23135;51.078;12.108;2023-07-30T03:34:22;16.50;99.90
37242;DHT22;23135;51.078;12.108;2023-07-30T03:36:47;16.40;99.90
37242;DHT22;23135;51.078;12.108;2023-07-30T03:39:13;16.40;99.90
37242;DHT22;23135;51.078;12.108;2023-07-30T03:41:39;16.40;99.90
37242;DHT22;23135;51.078;12.108;2023-07-30T03:44:04;16.30;99.90
37242;DHT22;23135;51.078;12.108;2023-07-30T03:46:30;16.30;99.90
37242;DHT22;23135;51.078;12.108;2023-07-30T03:48:55;16.30;99.90
37242;DHT22;23135;51.078;12.108;2023-07-30T03:51:21;16.30;99.90
37242;DHT22;23135;51.078;12.108;2023-07-30T03:53:47;16.30;99.90
37242;DHT22;23135;51.078;12.108;2023-07-30T03:56:13;16.30;99.90
37242;DHT22;23135;51.078;12.108;2023-07-30T03:58:38;16.30;99.90
37242;DHT22;23135;51.078;12.108;2023-07-30T04:01:04;16.30;99.90
37242;DHT22;23135;51.078;12.108;2023-07-30T04:03:29;16.40;99.90
37242;DHT22;23135;51.078;12.108;2023-07-30T04:05:55;16.30;99.90
37242;DHT22;23135;51.078;12.108;2023-07-30T04:08:20;16.30;99.90
37242;DHT22;23135;51.078;12.108;2023-07-30T04:10:46;16.30;99.90
37242;DHT22;23135;51.078;12.108;2023-07-30T04:13:12;16.30;99.90
37242;DHT22;23135;51.078;12.108;2023-07-30T04:15:37;16.30;99.90
37242;DHT22;23135;51.078;12.108;2023-07-30T04:18:03;16.40;99.90
37242;DHT22;23135;51.078;12.108;2023-07-30T04:20:29;16.40;99.90
37242;DHT22;23135;51.078;12.108;2023-07-30T04:22:54;16.50;99.90
37242;DHT22;23135;51.078;12.108;2023-07-30T04:25:20;16.50;99.90
37242;DHT22;23135;51.078;12.108;2023-07-30T04:27:45;16.50;99.90
37242;DHT22;23135;51.078;12.108;2023-07-30T04:30:11;16.50;99.90
37242;DHT22;23135;51.078;12.108;2023-07-30T04:32:37;16.60;99.90
37242;DHT22;23135;51.078;12.108;2023-07-30T04:35:03;16.60;99.90
37242;DHT22;23135;51.078;12.108;2023-07-30T04:37:28;16.60;99.90
37242;DHT22;23135;51.078;12.108;2023-07-30T04:39:54;16.70;99.90
37242;DHT22;23135;51.078;12.108;2023-07-30T04:42:20;16.70;99.90
37242;DHT22;23135;51.078;12.108;2023-07-30T04:44:45;16.70;99.90
37242;DHT22;23135;51.078;12.108;2023-07-30T04:47:11;16.70;99.90
37242;DHT22;23135;51.078;12.108;2023-07-30T04:49:37;16.80;99.90
37242;DHT22;23135;51.078;12.108;2023-07-30T04:52:06;16.80;99.90
37242;DHT22;23135;51.078;12.108;2023-07-30T04:54:32;16.90;99.90
37242;DHT22;23135;51.078;12.108;2023-07-30T04:56:58;16.90;99.90
37242;DHT22;23135;51.078;12.108;2023-07-30T04:59:23;16.90;99.90
37242;DHT22;23135;51.078;12.108;2023-07-30T05:01:49;16.90;99.90
37242;DHT22;23135;51.078;12.108;2023-07-30T05:04:14;17.00;99.90
37242;DHT22;23135;51.078;12.108;2023-07-30T05:06:40;17.10;99.90
37242;DHT22;23135;51.078;12.108;2023-07-30T05:09:05;17.20;99.90
37242;DHT22;23135;51.078;12.108;2023-07-30T05:11:31;17.30;99.90
37242;DHT22;23135;51.078;12.108;2023-07-30T05:13:56;17.40;99.90
37242;DHT22;23135;51.078;12.108;2023-07-30T05:16:22;17.50;99.90
37242;DHT22;23135;51.078;12.108;2023-07-30T05:18:48;17.60;99.90
37242;DHT22;23135;51.078;12.108;2023-07-30T05:21:13;17.70;99.90
37242;DHT22;23135;51.078;12.108;2023-07-30T05:23:39;17.70;99.90
37242;DHT22;23135;51.078;12.108;2023-07-30T05:26:04;17.70;99.90
37242;DHT22;23135;51.078;12.108;2023-07-30T05:28:30;17.80;99.90
37242;DHT22;23135;51.078;12.108;2023-07-30T05:30:55;17.90;99.90
37242;DHT22;23135;51.078;12.108;2023-07-30T05:33:21;17.90;99.90
37242;DHT22;23135;51.078;12.108;2023-07-30T05:35:46;18.00;99.90
37242;DHT22;23135;51.078;12.108;2023-07-30T05:38:15;18.00;99.90
37242;DHT22;23135;51.078;12.108;2023-07-30T05:40:41;18.10;99.90
37242;DHT22;23135;51.078;12.108;2023-07-30T05:43:07;18.30;99.90
37242;DHT22;23135;51.078;12.108;2023-07-30T05:45:34;18.50;99.90
37242;DHT22;23135;51.078;12.108;2023-07-30T05:47:59;18.50;99.90
37242;DHT22;23135;51.078;12.108;2023-07-30T05:50:25;18.60;99.90
37242;DHT22;23135;51.078;12.108;2023-07-30T05:52:50;18.80;99.90
37242;DHT22;23135;51.078;12.108;2023-07-30T05:55:16;19.10;99.90
37242;DHT22;23135;51.078;12.108;2023-07-30T05:57:42;19.20;99.90
37242;DHT22;23135;51.078;12.108;2023-07-30T06:00:08;19.30;99.90
37242;DHT22;23135;51.078;12.108;2023-07-30T06:02:33;19.30;99.90
37242;DHT22;23135;51.078;12.108;2023-07-30T06:04:59;19.50;99.90
37242;DHT22;23135;51.078;12.108;2023-07-30T06:07:25;19.50;99.90
37242;DHT22;23135;51.078;12.108;2023-07-30T06:09:50;19.50;99.90
37242;DHT22;23135;51.078;12.108;2023-07-30T06:12:16;19.50;99.90
37242;DHT22;23135;51.078;12.108;2023-07-30T06:14:41;19.50;99.90
37242;DHT22;23135;51.078;12.108;2023-07-30T06:17:07;19.60;99.90
37242;DHT22;23135;51.078;12.108;2023-07-30T06:19:33;19.60;99.90
37242;DHT22;23135;51.078;12.108;2023-07-30T06:21:58;19.60;99.90
37242;DHT22;23135;51.078;12.108;2023-07-30T06:24:24;19.70;99.90
37242;DHT22;23135;51.078;12.108;2023-07-30T06:26:49;19.80;99.90
37242;DHT22;23135;51.078;12.108;2023-07-30T06:29:15;19.90;99.90
37242;DHT22;23135;51.078;12.108;2023-07-30T06:31:40;20.20;99.90
37242;DHT22;23135;51.078;12.108;2023-07-30T06:34:06;20.30;99.90
37242;DHT22;23135;51.078;12.108;2023-07-30T06:36:31;20.40;99.90
37242;DHT22;23135;51.078;12.108;2023-07-30T06:38:57;20.60;99.90
37242;DHT22;23135;51.078;12.108;2023-07-30T06:41:23;20.40;99.90
37242;DHT22;23135;51.078;12.108;2023-07-30T06:43:48;20.20;99.90
37242;DHT22;23135;51.078;12.108;2023-07-30T06:46:14;20.20;99.90
37242;DHT22;23135;51.078;12.108;2023-07-30T06:48:39;20.30;99.90
37242;DHT22;23135;51.078;12.108;2023-07-30T06:51:06;20.60;99.90
37242;DHT22;23135;51.078;12.108;2023-07-30T06:53:32;20.50;99.90
37242;DHT22;23135;51.078;12.108;2023-07-30T06:55:58;20.30;99.90
37242;DHT22;23135;51.078;12.108;2023-07-30T06:58:23;20.20;99.90
37242;DHT22;23135;51.078;12.108;2023-07-30T07:00:49;20.30;99.90
37242;DHT22;23135;51.078;12.108;2023-07-30T07:03:15;20.50;99.90
37242;DHT22;23135;51.078;12.108;2023-07-30T07:05:40;20.80;99.90
37242;DHT22;23135;51.078;12.108;2023-07-30T07:08:06;21.00;99.90
37242;DHT22;23135;51.078;12.108;2023-07-30T07:10:31;21.00;99.90
37242;DHT22;23135;51.078;12.108;2023-07-30T07:12:57;21.20;99.90
37242;DHT22;23135;51.078;12.108;2023-07-30T07:15:22;21.40;99.90
37242;DHT22;23135;51.078;12.108;2023-07-30T07:17:48;21.70;99.90
37242;DHT22;23135;51.078;12.108;2023-07-30T07:20:14;21.80;99.90
37242;DHT22;23135;51.078;12.108;2023-07-30T07:22:39;21.90;99.90
37242;DHT22;23135;51.078;12.108;2023-07-30T07:25:05;22.10;99.90
37242;DHT22;23135;51.078;12.108;2023-07-30T07:27:31;22.10;99.90
37242;DHT22;23135;51.078;12.108;2023-07-30T07:29:56;21.80;99.90
37242;DHT22;23135;51.078;12.108;2023-07-30T07:32:22;21.50;99.90
37242;DHT22;23135;51.078;12.108;2023-07-30T07:34:48;21.20;99.90
37242;DHT22;23135;51.078;12.108;2023-07-30T07:37:14;21.00;99.90
37242;DHT22;23135;51.078;12.108;2023-07-30T07:39:44;21.00;99.90
37242;DHT22;23135;51.078;12.108;2023-07-30T07:42:10;21.10;99.90
37242;DHT22;23135;51.078;12.108;2023-07-30T07:44:36;21.10;99.90
37242;DHT22;23135;51.078;12.108;2023-07-30T07:47:02;21.10;99.90
37242;DHT22;23135;51.078;12.108;2023-07-30T07:49:27;21.20;99.90
37242;DHT22;23135;51.078;12.108;2023-07-30T07:51:53;21.40;99.90
37242;DHT22;23135;51.078;12.108;2023-07-30T07:54:19;21.50;99.90
37242;DHT22;23135;51.078;12.108;2023-07-30T07:56:44;21.80;99.90
37242;DHT22;23135;51.078;12.108;2023-07-30T07:59:10;21.90;99.90
37242;DHT22;23135;51.078;12.108;2023-07-30T08:01:35;21.70;99.90
37242;DHT22;23135;51.078;12.108;2023-07-30T08:04:01;21.50;99.90
37242;DHT22;23135;51.078;12.108;2023-07-30T08:06:28;21.70;99.90
37242;DHT22;23135;51.078;12.108;2023-07-30T08:08:55;21.70;99.90
37242;DHT22;23135;51.078;12.108;2023-07-30T08:11:20;22.10;99.90
37242;DHT22;23135;51.078;12.108;2023-07-30T08:13:46;22.40;99.90
37242;DHT22;23135;51.078;12.108;2023-07-30T08:16:12;22.40;99.90
37242;DHT22;23135;51.078;12.108;2023-07-30T08:18:37;22.20;99.90
37242;DHT22;23135;51.078;12.108;2023-07-30T08:21:03;22.00;99.90
37242;DHT22;23135;51.078;12.108;2023-07-30T08:23:29;21.90;99.90
37242;DHT22;23135;51.078;12.108;2023-07-30T08:25:54;21.80;99.90
37242;DHT22;23135;51.078;12.108;2023-07-30T08:28:20;21.70;99.90
37242;DHT22;23135;51.078;12.108;2023-07-30T08:30:46;21.60;99.90
37242;DHT22;23135;51.078;12.108;2023-07-30T08:33:12;21.80;99.90
37242;DHT22;23135;51.078;12.108;2023-07-30T08:35:37;21.90;99.90
37242;DHT22;23135;51.078;12.108;2023-07-30T08:38:03;22.10;99.90
37242;DHT22;23135;51.078;12.108;2023-07-30T08:40:28;22.20;99.90
37242;DHT22;23135;51.078;12.108;2023-07-30T08:42:54;22.10;99.90
37242;DHT22;23135;51.078;12.108;2023-07-30T08:45:20;22.50;99.90
37242;DHT22;23135;51.078;12.108;2023-07-30T08:47:47;23.20;99.90
37242;DHT22;23135;51.078;12.108;2023-07-30T08:50:13;23.60;99.90
37242;DHT22;23135;51.078;12.108;2023-07-30T08:52:40;23.30;99.90
37242;DHT22;23135;51.078;12.108;2023-07-30T08:55:06;23.50;99.90
37242;DHT22;23135;51.078;12.108;2023-07-30T08:57:32;23.40;99.90
37242;DHT22;23135;51.078;12.108;2023-07-30T09:00:06;23.80;99.90
37242;DHT22;23135;51.078;12.108;2023-07-30T09:02:48;24.00;99.90
37242;DHT22;23135;51.078;12.108;2023-07-30T09:05:15;24.50;99.90
37242;DHT22;23135;51.078;12.108;2023-07-30T09:07:41;24.60;99.90
37242;DHT22;23135;51.078;12.108;2023-07-30T09:10:07;24.70;97.90
37242;DHT22;23135;51.078;12.108;2023-07-30T09:12:33;24.20;99.00
37242;DHT22;23135;51.078;12.108;2023-07-30T09:15:00;24.10;99.90
37242;DHT22;23135;51.078;12.108;2023-07-30T09:17:27;24.40;98.10
37242;DHT22;23135;51.078;12.108;2023-07-30T09:19:53;24.70;97.60
37242;DHT22;23135;51.078;12.108;2023-07-30T09:24:51;25.10;96.10
37242;DHT22;23135;51.078;12.108;2023-07-30T09:27:20;25.30;94.40
37242;DHT22;23135;51.078;12.108;2023-07-30T09:29:52;25.20;94.20
37242;DHT22;23135;51.078;12.108;2023-07-30T09:32:18;25.20;94.10
37242;DHT22;23135;51.078;12.108;2023-07-30T09:34:45;25.30;93.00
37242;DHT22;23135;51.078;12.108;2023-07-30T09:37:11;25.50;92.30
37242;DHT22;23135;51.078;12.108;2023-07-30T09:39:37;25.30;92.50
37242;DHT22;23135;51.078;12.108;2023-07-30T09:42:03;25.20;91.40
37242;DHT22;23135;51.078;12.108;2023-07-30T09:44:32;25.30;92.10
37242;DHT22;23135;51.078;12.108;2023-07-30T09:46:58;25.70;89.50
37242;DHT22;23135;51.078;12.108;2023-07-30T09:49:24;25.40;89.00
37242;DHT22;23135;51.078;12.108;2023-07-30T09:51:51;25.50;91.10
37242;DHT22;23135;51.078;12.108;2023-07-30T09:54:17;25.20;89.90
37242;DHT22;23135;51.078;12.108;2023-07-30T09:56:42;24.90;90.30
37242;DHT22;23135;51.078;12.108;2023-07-30T09:59:09;24.80;90.80
37242;DHT22;23135;51.078;12.108;2023-07-30T10:01:43;25.20;91.90
37242;DHT22;23135;51.078;12.108;2023-07-30T10:04:09;25.60;90.60
37242;DHT22;23135;51.078;12.108;2023-07-30T10:09:23;25.70;88.70
37242;DHT22;23135;51.078;12.108;2023-07-30T10:11:52;25.80;90.60
37242;DHT22;23135;51.078;12.108;2023-07-30T10:14:20;26.00;89.90
37242;DHT22;23135;51.078;12.108;2023-07-30T10:16:54;26.10;85.90
37242;DHT22;23135;51.078;12.108;2023-07-30T10:19:27;25.50;88.00
37242;DHT22;23135;51.078;12.108;2023-07-30T10:27:27;25.70;85.70
37242;DHT22;23135;51.078;12.108;2023-07-30T10:30:13;25.60;88.00
37242;DHT22;23135;51.078;12.108;2023-07-30T10:35:05;26.10;84.50
37242;DHT22;23135;51.078;12.108;2023-07-30T10:37:31;26.30;82.70
37242;DHT22;23135;51.078;12.108;2023-07-30T10:39:57;26.00;86.90
37242;DHT22;23135;51.078;12.108;2023-07-30T10:42:22;26.20;84.60
37242;DHT22;23135;51.078;12.108;2023-07-30T10:44:49;26.50;82.90
37242;DHT22;23135;51.078;12.108;2023-07-30T10:47:15;25.80;83.90
37242;DHT22;23135;51.078;12.108;2023-07-30T10:49:41;25.70;85.50
37242;DHT22;23135;51.078;12.108;2023-07-30T10:52:09;26.00;85.20
37242;DHT22;23135;51.078;12.108;2023-07-30T10:54:36;26.40;84.10
37242;DHT22;23135;51.078;12.108;2023-07-30T10:57:03;26.50;84.60
37242;DHT22;23135;51.078;12.108;2023-07-30T10:59:36;27.10;82.70
37242;DHT22;23135;51.078;12.108;2023-07-30T11:02:02;27.30;83.00
37242;DHT22;23135;51.078;12.108;2023-07-30T11:04:28;27.50;83.90
37242;DHT22;23135;51.078;12.108;2023-07-30T11:06:54;27.30;82.60
37242;DHT22;23135;51.078;12.108;2023-07-30T11:09:24;27.20;83.50
37242;DHT22;23135;51.078;12.108;2023-07-30T11:11:51;27.10;83.60
37242;DHT22;23135;51.078;12.108;2023-07-30T11:14:22;27.00;85.70
37242;DHT22;23135;51.078;12.108;2023-07-30T11:16:54;27.00;83.60
37242;DHT22;23135;51.078;12.108;2023-07-30T11:19:20;26.60;83.70
37242;DHT22;23135;51.078;12.108;2023-07-30T11:21:47;27.00;83.30
37242;DHT22;23135;51.078;12.108;2023-07-30T11:24:14;27.30;82.40
37242;DHT22;23135;51.078;12.108;2023-07-30T11:26:40;27.60;82.60
37242;DHT22;23135;51.078;12.108;2023-07-30T11:29:19;27.80;82.90
37242;DHT22;23135;51.078;12.108;2023-07-30T11:31:47;27.60;80.90
37242;DHT22;23135;51.078;12.108;2023-07-30T11:34:13;27.40;80.20
37242;DHT22;23135;51.078;12.108;2023-07-30T11:36:41;27.30;80.10
37242;DHT22;23135;51.078;12.108;2023-07-30T11:39:08;27.70;82.70
37242;DHT22;23135;51.078;12.108;2023-07-30T11:41:33;27.40;81.30
37242;DHT22;23135;51.078;12.108;2023-07-30T11:43:59;27.40;82.30
37242;DHT22;23135;51.078;12.108;2023-07-30T11:46:25;27.60;81.50
37242;DHT22;23135;51.078;12.108;2023-07-30T11:48:53;27.40;79.80
37242;DHT22;23135;51.078;12.108;2023-07-30T11:51:29;27.10;80.80
37242;DHT22;23135;51.078;12.108;2023-07-30T11:53:56;26.70;82.80
37242;DHT22;23135;51.078;12.108;2023-07-30T11:56:28;26.70;82.90
37242;DHT22;23135;51.078;12.108;2023-07-30T11:59:00;26.90;83.00
37242;DHT22;23135;51.078;12.108;2023-07-30T12:01:28;26.90;83.30
37242;DHT22;23135;51.078;12.108;2023-07-30T12:03:58;26.50;83.20
37242;DHT22;23135;51.078;12.108;2023-07-30T12:06:37;26.20;84.40
37242;DHT22;23135;51.078;12.108;2023-07-30T12:09:11;26.10;83.60
37242;DHT22;23135;51.078;12.108;2023-07-30T12:11:47;26.20;83.70
37242;DHT22;23135;51.078;12.108;2023-07-30T12:14:14;26.60;82.90
37242;DHT22;23135;51.078;12.108;2023-07-30T12:16:40;26.70;82.40
37242;DHT22;23135;51.078;12.108;2023-07-30T12:19:05;26.80;81.20
37242;DHT22;23135;51.078;12.108;2023-07-30T12:21:31;26.60;83.60
37242;DHT22;23135;51.078;12.108;2023-07-30T12:23:57;26.50;84.40
37242;DHT22;23135;51.078;12.108;2023-07-30T12:26:22;26.30;83.20
37242;DHT22;23135;51.078;12.108;2023-07-30T12:28:48;26.00;83.00
37242;DHT22;23135;51.078;12.108;2023-07-30T12:31:13;25.80;85.00
37242;DHT22;23135;51.078;12.108;2023-07-30T12:33:39;25.50;84.50
37242;DHT22;23135;51.078;12.108;2023-07-30T12:36:05;25.30;83.90
37242;DHT22;23135;51.078;12.108;2023-07-30T12:38:30;25.10;85.10
37242;DHT22;23135;51.078;12.108;2023-07-30T12:40:56;25.10;85.90
37242;DHT22;23135;51.078;12.108;2023-07-30T12:43:21;25.20;85.60
37242;DHT22;23135;51.078;12.108;2023-07-30T12:45:47;25.10;86.00
37242;DHT22;23135;51.078;12.108;2023-07-30T12:48:13;24.80;88.30
37242;DHT22;23135;51.078;12.108;2023-07-30T12:50:39;24.60;88.00
37242;DHT22;23135;51.078;12.108;2023-07-30T12:53:04;24.60;90.10
37242;DHT22;23135;51.078;12.108;2023-07-30T12:55:30;24.80;89.70
37242;DHT22;23135;51.078;12.108;2023-07-30T12:57:55;25.00;90.50
37242;DHT22;23135;51.078;12.108;2023-07-30T13:00:21;25.10;90.30
37242;DHT22;23135;51.078;12.108;2023-07-30T13:02:47;25.30;91.10
37242;DHT22;23135;51.078;12.108;2023-07-30T13:05:12;25.20;90.30
37242;DHT22;23135;51.078;12.108;2023-07-30T13:07:40;24.80;91.40
37242;DHT22;23135;51.078;12.108;2023-07-30T13:10:08;24.40;92.40
37242;DHT22;23135;51.078;12.108;2023-07-30T13:12:34;24.00;94.20
37242;DHT22;23135;51.078;12.108;2023-07-30T13:15:00;23.50;95.10
37242;DHT22;23135;51.078;12.108;2023-07-30T13:17:26;23.20;97.10
37242;DHT22;23135;51.078;12.108;2023-07-30T13:19:51;23.10;99.10
37242;DHT22;23135;51.078;12.108;2023-07-30T13:22:17;23.00;99.90
37242;DHT22;23135;51.078;12.108;2023-07-30T13:24:43;23.00;99.90
37242;DHT22;23135;51.078;12.108;2023-07-30T13:27:08;23.10;99.90
37242;DHT22;23135;51.078;12.108;2023-07-30T13:29:34;23.10;99.90
37242;DHT22;23135;51.078;12.108;2023-07-30T13:32:00;23.10;99.90
37242;DHT22;23135;51.078;12.108;2023-07-30T13:34:26;23.10;99.90
37242;DHT22;23135;51.078;12.108;2023-07-30T13:36:52;23.10;99.90
37242;DHT22;23135;51.078;12.108;2023-07-30T13:39:17;23.00;99.90
37242;DHT22;23135;51.078;12.108;2023-07-30T13:41:43;23.10;99.90
37242;DHT22;23135;51.078;12.108;2023-07-30T13:44:09;23.30;99.90
37242;DHT22;23135;51.078;12.108;2023-07-30T13:46:37;23.50;99.90
37242;DHT22;23135;51.078;12.108;2023-07-30T13:49:02;24.00;99.90
37242;DHT22;23135;51.078;12.108;2023-07-30T13:51:28;24.00;99.90
37242;DHT22;23135;51.078;12.108;2023-07-30T13:53:58;24.00;99.90
37242;DHT22;23135;51.078;12.108;2023-07-30T13:56:25;24.40;99.80
37242;DHT22;23135;51.078;12.108;2023-07-30T13:58:50;24.10;99.90
37242;DHT22;23135;51.078;12.108;2023-07-30T14:01:16;23.90;99.90
37242;DHT22;23135;51.078;12.108;2023-07-30T14:03:43;23.80;99.90
37242;DHT22;23135;51.078;12.108;2023-07-30T14:06:09;23.60;99.90
37242;DHT22;23135;51.078;12.108;2023-07-30T14:08:35;23.50;99.90
37242;DHT22;23135;51.078;12.108;2023-07-30T14:11:00;23.40;99.90
37242;DHT22;23135;51.078;12.108;2023-07-30T14:13:26;23.40;99.90
37242;DHT22;23135;51.078;12.108;2023-07-30T14:15:52;23.30;99.90
37242;DHT22;23135;51.078;12.108;2023-07-30T14:18:17;23.40;99.90
37242;DHT22;23135;51.078;12.108;2023-07-30T14:20:43;23.30;99.90
37242;DHT22;23135;51.078;12.108;2023-07-30T14:23:09;23.30;99.90
37242;DHT22;23135;51.078;12.108;2023-07-30T14:25:36;23.10;99.90
37242;DHT22;23135;51.078;12.108;2023-07-30T14:28:01;22.90;99.90
37242;DHT22;23135;51.078;12.108;2023-07-30T14:30:27;22.70;99.90
37242;DHT22;23135;51.078;12.108;2023-07-30T14:32:53;22.40;99.90
37242;DHT22;23135;51.078;12.108;2023-07-30T14:37:46;22.00;99.90
37242;DHT22;23135;51.078;12.108;2023-07-30T14:40:12;21.80;99.90
37242;DHT22;23135;51.078;12.108;2023-07-30T14:42:38;21.50;99.90
37242;DHT22;23135;51.078;12.108;2023-07-30T14:45:05;19.90;99.90
37242;DHT22;23135;51.078;12.108;2023-07-30T14:47:31;18.20;99.90
37242;DHT22;23135;51.078;12.108;2023-07-30T14:49:58;17.20;99.90
37242;DHT22;23135;51.078;12.108;2023-07-30T14:52:24;16.70;99.90
37242;DHT22;23135;51.078;12.108;2023-07-30T14:54:49;16.30;99.90
37242;DHT22;23135;51.078;12.108;2023-07-30T14:57:16;16.00;99.90
37242;DHT22;23135;51.078;12.108;2023-07-30T14:59:41;16.00;99.90
37242;DHT22;23135;51.078;12.108;2023-07-30T15:02:07;16.00;99.90
37242;DHT22;23135;51.078;12.108;2023-07-30T15:04:32;16.00;99.90
37242;DHT22;23135;51.078;12.108;2023-07-30T15:06:58;16.10;99.90
37242;DHT22;23135;51.078;12.108;2023-07-30T15:09:24;16.10;99.90
37242;DHT22;23135;51.078;12.108;2023-07-30T15:11:49;16.20;99.90
37242;DHT22;23135;51.078;12.108;2023-07-30T15:14:15;16.20;99.90
37242;DHT22;23135;51.078;12.108;2023-07-30T15:16:40;16.40;99.90
37242;DHT22;23135;51.078;12.108;2023-07-30T15:19:06;16.40;99.90
37242;DHT22;23135;51.078;12.108;2023-07-30T15:21:31;16.50;99.90
37242;DHT22;23135;51.078;12.108;2023-07-30T15:23:57;16.60;99.90
37242;DHT22;23135;51.078;12.108;2023-07-30T15:26:26;16.50;99.90